Latest Weather Observations for Batchelor

IDD60801

Issued at 1:01 pm CST Wednesday 22 February 2017 (issued every 30 minutes, with the page automatically refreshed every 10 minutes)

About weather observations | Map of weather stations | Latest weather observations for NT | Other Formats
Station Details ID: 014272 Name: BATCHELOR AIRPORT Lat: -13.05 Lon: 131.03 Height: 104.0 m
Data from the previous 72 hours. | See also: Recent months at Batchelor
Date/Time
CST
Temp
°C
App
Temp
°C
Dew
Point
°C
Rel
Hum
%
Delta-T
°C
Wind Press
QNH
hPa
Press
MSL
hPa
Rain since
9am
mm
Dir  Spd
km/h
Gust
km/h
Spd
kts
Gust
kts
22/01:00pm 33.5 35.1 19.2 43 9.4 SW 9 17 5 9 1010.0 1009.3 0.0
22/12:30pm 33.5 35.3 18.4 40 9.9 SSW 6 15 3 8 1010.5 1009.8 0.0
22/12:00pm 33.2 35.1 18.9 42 9.4 SSW 7 13 4 7 1011.0 1010.3 0.0
22/11:30am 33.0 34.9 19.8 45 8.8 WSW 9 15 5 8 1011.4 1010.7 0.0
22/11:00am 32.1 34.5 20.0 48 8.0 SW 7 13 4 7 1011.5 1010.8 0.0
22/10:30am 30.9 33.2 19.9 52 7.3 WSW 7 13 4 7 1011.6 1010.9 0.0
22/10:00am 30.0 33.7 22.2 63 5.3 SW 6 11 3 6 1011.7 1011.0 0.0
22/09:30am 28.7 32.6 22.9 71 4.0 WSW 7 11 4 6 1011.9 1011.2 0.0
22/09:00am 27.5 31.5 23.1 77 3.0 W 7 11 4 6 1012.0 1011.3 0.0
22/08:30am 26.1 30.5 23.4 85 1.8 WSW 6 7 3 4 1011.9 1011.2 0.0
22/08:00am 24.8 29.5 23.4 92 1.0 WSW 4 4 2 2 1011.7 1011.0 0.0
22/07:30am 23.0 27.6 22.5 97 0.3 WSW 2 2 1 1 1011.5 1010.8 0.0
22/07:00am 21.9 25.8 21.2 96 0.5 WSW 2 2 1 1 1011.1 1010.4 0.0
22/06:30am 21.6 25.7 20.8 95 0.5 CALM 0 6 0 3 1010.9 1010.2 0.0
22/06:00am 21.5 25.6 20.7 95 0.5 CALM 0 0 0 0 1010.6 1009.9 0.0
22/05:30am 21.7 25.9 20.9 95 0.5 CALM 0 0 0 0 1010.4 1009.7 0.0
22/05:00am 22.2 26.5 21.2 94 0.7 CALM 0 0 0 0 1010.1 1009.4 0.0
22/04:30am 22.3 26.4 21.5 95 0.5 WSW 2 2 1 1 1009.7 1009.0 0.0
22/04:00am 22.6 26.8 21.8 95 0.5 WSW 2 4 1 2 1009.4 1008.7 0.0
22/03:30am 22.5 26.5 21.3 93 0.8 WSW 2 2 1 1 1009.1 1008.4 0.0
22/03:00am 22.7 26.8 21.5 93 0.8 WSW 2 2 1 1 1009.2 1008.5 0.0
22/02:30am 22.8 26.8 21.3 91 1.0 WSW 2 2 1 1 1009.2 1008.5 0.0
22/02:00am 23.0 27.1 21.5 91 1.0 WSW 2 2 1 1 1009.4 1008.7 0.0
22/01:30am 23.3 27.3 21.4 89 1.3 WSW 2 2 1 1 1009.8 1009.1 0.0
22/01:00am 24.0 27.8 21.7 87 1.5 WSW 4 4 2 2 1010.1 1009.4 0.0
22/12:30am 23.7 27.3 21.2 86 1.7 SW 4 6 2 3 1010.4 1009.7 0.0
22/12:00am 23.3 27.5 21.0 87 1.5 CALM 0 0 0 0 1010.8 1010.1 0.0
 
Date/Time
CST
Temp
°C
App
Temp
°C
Dew
Point
°C
Rel
Hum
%
Delta-T
°C
Wind Press
QNH
hPa
Press
MSL
hPa
Rain since
9am
mm
Dir  Spd
km/h
Gust
km/h
Spd
kts
Gust
kts
21/11:30pm 23.5 27.8 21.2 87 1.5 CALM 0 0 0 0 1011.1 1010.4 0.0
21/11:00pm 23.8 28.0 20.9 84 1.9 CALM 0 0 0 0 1011.1 1010.4 0.0
21/10:30pm 24.5 28.2 20.8 80 2.4 SW 2 4 1 2 1011.0 1010.3 0.0
21/10:00pm 24.1 27.4 20.8 82 2.2 WSW 4 7 2 4 1010.8 1010.1 0.0
21/09:30pm 25.0 29.3 21.1 79 2.6 CALM 0 0 0 0 1010.5 1009.8 0.0
21/09:00pm 25.3 28.9 20.5 75 3.2 S 2 11 1 6 1010.2 1009.5 0.0
21/08:30pm 26.1 30.4 21.1 74 3.3 CALM 0 0 0 0 1010.1 1009.4 0.0
21/08:00pm 26.9 31.2 21.2 71 3.8 CALM 0 0 0 0 1009.8 1009.1 0.0
21/07:30pm 28.1 32.8 21.9 69 4.2 CALM 0 0 0 0 1009.4 1008.7 0.0
21/07:00pm 30.6 34.4 20.2 53 6.9 CALM 0 2 0 1 1009.2 1008.5 0.0
21/06:30pm 32.0 33.5 16.7 40 9.7 SSE 4 4 2 2 1009.0 1008.3 0.0
21/06:00pm 32.9 33.2 14.5 33 11.4 SE 6 9 3 5 1008.7 1008.0 0.0
21/05:30pm 33.3 33.6 14.4 32 11.7 SSE 6 11 3 6 1008.3 1007.6 0.0
21/05:00pm 33.4 33.0 12.9 28 12.4 SSW 7 13 4 7 1008.1 1007.4 0.0
21/04:30pm 34.1 34.1 14.1 30 12.3 S 7 15 4 8 1008.2 1007.5 0.0
21/04:00pm 34.0 33.6 14.0 30 12.3 S 9 15 5 8 1008.4 1007.7 0.0
21/03:30pm 33.9 33.8 13.9 30 12.3 SSW 7 17 4 9 1008.6 1007.9 0.0
21/03:00pm 34.0 34.5 15.5 33 11.6 SW 7 13 4 7 1008.8 1008.1 0.0
21/02:30pm 33.8 34.2 14.8 32 11.8 SE 6 7 3 4 1009.2 1008.5 0.0
21/02:00pm 33.6 33.6 15.1 33 11.5 S 9 19 5 10 1009.6 1008.9 0.0
21/01:30pm 33.5 33.3 13.0 29 12.4 SSW 6 11 3 6 1010.2 1009.5 0.0
21/01:00pm 33.8 34.2 14.8 32 11.8 S 6 11 3 6 1010.8 1010.1 0.0
21/12:30pm 32.9 32.7 13.5 30 11.8 SW 7 15 4 8 1011.4 1010.7 0.0
21/12:00pm 32.6 32.2 14.2 32 11.3 SE 9 15 5 8 1011.8 1011.1 0.0
21/11:30am 31.9 32.1 14.1 34 10.9 SSE 6 9 3 5 1012.2 1011.5 0.0
21/11:00am 31.9 33.4 16.6 39 9.7 ESE 4 13 2 7 1012.3 1011.6 0.0
21/10:30am 31.0 32.6 17.0 43 8.9 ESE 4 9 2 5 1012.6 1011.9 0.0
21/10:00am 29.9 31.3 17.4 47 8.0 SSE 6 9 3 5 1012.8 1012.0 0.0
21/09:30am 28.8 31.1 19.4 56 6.1 SSE 6 7 3 4 1012.9 1012.1 0.0
21/09:00am 27.2 30.2 20.8 68 4.2 S 6 9 3 5 1012.6 1011.9 0.2
21/08:30am 26.1 29.2 21.1 74 3.3 S 6 9 3 5 1012.1 1011.4 0.2
21/08:00am 25.1 30.2 24.1 94 0.7 S 4 6 2 3 1011.6 1010.9 0.2
21/07:30am 23.6 29.1 23.4 99 0.1 CALM 0 2 0 1 1011.0 1010.3 0.2
21/07:00am 22.9 27.6 22.6 98 0.2 WSW 2 4 1 2 1010.4 1009.7 0.2
21/06:30am 21.7 25.6 21.2 97 0.3 WSW 2 4 1 2 1009.9 1009.2 0.2
21/06:00am 21.7 25.9 21.0 96 0.5 CALM 0 0 0 0 1009.7 1009.0 0.2
21/05:30am 22.0 26.0 21.3 96 0.5 WSW 2 4 1 2 1009.5 1008.8 0.2
21/05:00am 22.1 26.5 21.3 95 0.5 CALM 0 0 0 0 1009.1 1008.4 0.2
21/04:30am 22.1 26.5 21.3 95 0.5 CALM 0 0 0 0 1008.9 1008.2 0.2
21/04:00am 22.1 26.3 20.9 93 0.8 CALM 0 0 0 0 1008.9 1008.2 0.2
21/03:30am 21.9 26.0 20.7 93 0.8 CALM 0 0 0 0 1008.7 1008.0 0.2
21/03:00am 22.1 26.0 21.1 94 0.7 WSW 2 4 1 2 1008.9 1008.2 0.2
21/02:30am 21.9 25.9 20.5 92 0.9 CALM 0 0 0 0 1009.1 1008.4 0.2
21/02:00am 22.0 26.0 20.6 92 0.9 CALM 0 0 0 0 1009.1 1008.4 0.2
21/01:30am 22.1 25.8 20.0 88 1.4 CALM 0 0 0 0 1009.5 1008.8 0.2
21/01:00am 22.4 26.3 20.3 88 1.4 CALM 0 0 0 0 1009.9 1009.2 0.2
21/12:30am 22.7 26.8 20.8 89 1.2 CALM 0 0 0 0 1010.0 1009.3 0.2
21/12:00am 22.8 26.3 20.3 86 1.6 WSW 2 4 1 2 1010.2 1009.5 0.2
 
Date/Time
CST
Temp
°C
App
Temp
°C
Dew
Point
°C
Rel
Hum
%
Delta-T
°C
Wind Press
QNH
hPa
Press
MSL
hPa
Rain since
9am
mm
Dir  Spd
km/h
Gust
km/h
Spd
kts
Gust
kts
20/11:30pm 23.1 26.3 20.4 85 1.8 WSW 4 9 2 5 1010.3 1009.6 0.2
20/11:00pm 23.4 27.5 20.7 85 1.8 CALM 0 0 0 0 1010.2 1009.5 0.2
20/10:30pm 23.8 28.1 21.1 85 1.8 CALM 0 0 0 0 1010.2 1009.5 0.2
20/10:00pm 24.3 28.4 20.8 81 2.3 CALM 0 0 0 0 1010.0 1009.3 0.2
20/09:30pm 24.7 29.0 21.2 81 2.3 CALM 0 2 0 1 1009.8 1009.1 0.2
20/09:00pm 25.6 30.4 22.1 81 2.4 CALM 0 0 0 0 1009.6 1008.9 0.2
20/08:30pm 26.3 31.2 22.4 79 2.6 CALM 0 0 0 0 1009.4 1008.7 0.2
20/08:00pm 27.2 32.1 22.4 75 3.3 CALM 0 0 0 0 1009.0 1008.3 0.2
20/07:30pm 28.4 33.2 22.9 72 3.8 S 2 4 1 2 1008.6 1007.9 0.2
20/07:00pm 30.5 33.2 18.6 49 7.7 S 2 4 1 2 1008.3 1007.6 0.2
20/06:30pm 31.7 33.6 17.6 43 9.1 S 4 7 2 4 1007.9 1007.2 0.2
20/06:00pm 32.6 33.9 17.2 39 9.9 SSE 6 9 3 5 1007.4 1006.7 0.2
20/05:30pm 33.4 34.8 16.3 36 10.9 SSW 4 9 2 5 1006.9 1006.2 0.2
20/05:00pm 33.4 33.8 15.4 34 11.3 SSE 7 15 4 8 1006.7 1006.0 0.2
20/04:30pm 33.5 33.6 16.4 36 10.9 SE 11 17 6 9 1006.5 1005.8 0.2
20/04:00pm 33.0 33.1 16.4 37 10.5 SE 11 17 6 9 1006.4 1005.6 0.2
20/03:30pm 33.3 32.8 14.8 32 11.5 SSE 11 19 6 10 1006.7 1006.0 0.2
20/03:00pm 33.3 33.5 15.8 35 11.0 ESE 9 15 5 8 1006.9 1006.2 0.2
20/02:30pm 33.4 33.4 16.3 36 10.9 SE 11 19 6 10 1007.2 1006.5 0.2
20/02:00pm 33.1 33.4 16.9 38 10.3 SSE 11 17 6 9 1007.7 1007.0 0.2
20/01:30pm 32.9 33.2 17.1 39 10.1 SSE 11 20 6 11 1008.0 1007.3 0.2
20/01:00pm 32.4 34.3 18.9 44 8.8 SE 7 15 4 8 1008.5 1007.8 0.2
20/12:30pm 31.8 33.2 18.7 45 8.5 SE 9 17 5 9 1009.0 1008.3 0.2
20/12:00pm 31.4 32.8 18.7 46 8.3 SSE 9 17 5 9 1009.3 1008.6 0.2
20/11:30am 31.7 33.7 20.0 50 7.8 SE 9 17 5 9 1009.4 1008.7 0.2
20/11:00am 30.5 34.5 22.7 63 5.3 S 6 9 3 5 1009.9 1009.2 0.2
20/10:30am 29.5 33.4 22.5 66 4.8 WSW 6 7 3 4 1010.1 1009.4 0.2
20/10:00am 28.8 32.9 23.0 71 4.0 SW 6 7 3 4 1010.3 1009.6 0.2
20/09:30am 27.7 33.1 24.5 83 2.2 W 4 7 2 4 1010.3 1009.6 0.2
20/09:00am 26.6 31.4 24.1 86 1.7 W 6 7 3 4 1010.2 1009.5 11.4
20/08:30am 26.2 30.7 23.7 86 1.7 WSW 6 7 3 4 1009.8 1009.1 11.4
20/08:00am 25.1 30.0 23.7 92 1.0 WSW 4 7 2 4 1009.7 1009.0 11.4
20/07:30am 24.4 30.2 23.9 97 0.3 CALM 0 4 0 2 1009.4 1008.7 11.4
20/07:00am 23.6 28.2 23.1 97 0.3 NNW 4 4 2 2 1009.2 1008.5 11.4
20/06:30am 23.5 28.8 23.0 97 0.3 CALM 0 2 0 1 1008.7 1008.0 11.4
20/06:00am 23.6 28.8 22.9 96 0.5 CALM 0 0 0 0 1008.4 1007.7 11.4
20/05:30am 23.8 29.1 23.0 95 0.5 CALM 0 0 0 0 1008.2 1007.5 11.4
20/05:00am 24.0 29.3 23.1 95 0.6 CALM 0 2 0 1 1008.1 1007.4 11.4
20/04:30am 24.0 29.4 23.3 96 0.5 CALM 0 0 0 0 1008.1 1007.4 11.4
20/04:00am 23.6 28.4 22.8 95 0.5 ESE 2 4 1 2 1007.9 1007.2 11.4
20/03:30am 23.8 29.1 23.0 95 0.5 CALM 0 4 0 2 1007.8 1007.1 11.4
20/03:00am 23.6 27.9 22.6 94 0.7 E 4 6 2 3 1007.6 1006.9 11.4
20/02:30am 23.9 28.6 22.7 93 0.8 WSW 2 4 1 2 1008.0 1007.3 11.4
20/02:00am 23.8 28.1 22.6 93 0.8 WSW 4 6 2 3 1008.1 1007.4 11.4
20/01:30am 23.6 28.1 22.2 92 0.9 E 2 6 1 3 1008.7 1008.0 11.4
20/01:00am 23.7 27.3 22.1 91 1.1 SE 6 6 3 3 1008.7 1008.0 11.4
20/12:30am 24.1 26.9 21.6 86 1.7 SE 9 17 5 9 1009.3 1008.6 11.4
20/12:00am 26.6 28.4 23.5 83 2.1 SE 20 37 11 20 1009.3 1008.6 11.4
 
Date/Time
CST
Temp
°C
App
Temp
°C
Dew
Point
°C
Rel
Hum
%
Delta-T
°C
Wind Press
QNH
hPa
Press
MSL
hPa
Rain since
9am
mm
Dir  Spd
km/h
Gust
km/h
Spd
kts
Gust
kts
19/11:30pm 25.8 31.1 24.4 92 1.0 W 4 7 2 4 1008.8 1008.1 11.4
19/11:00pm 25.9 31.3 24.5 92 1.0 WSW 4 7 2 4 1008.6 1007.9 11.4
19/10:30pm 25.9 31.3 24.5 92 1.0 WSW 4 7 2 4 1008.8 1008.1 11.4
19/10:00pm 25.9 31.0 24.1 90 1.2 WSW 4 7 2 4 1008.9 1008.2 11.4
19/09:30pm 26.1 31.2 24.0 88 1.5 W 4 6 2 3 1008.4 1007.7 11.4
19/09:00pm 26.3 30.9 23.8 86 1.7 W 6 7 3 4 1007.8 1007.1 11.4
19/08:30pm 26.3 30.8 23.6 85 1.9 WSW 6 9 3 5 1007.6 1006.9 11.4
19/08:00pm 26.5 31.2 24.0 86 1.7 WSW 6 9 3 5 1007.3 1006.6 11.4
19/07:30pm 26.8 31.7 24.3 86 1.7 W 6 7 3 4 1006.9 1006.2 11.4
19/07:00pm 26.9 32.1 24.2 85 1.9 WSW 4 9 2 5 1006.5 1005.8 11.4
19/06:30pm 26.9 32.0 24.0 84 2.0 W 4 7 2 4 1006.1 1005.3 11.4
19/06:00pm 26.8 31.7 23.7 83 2.1 W 4 7 2 4 1005.8 1005.0 11.4
19/05:30pm 26.2 30.7 22.9 82 2.2 W 4 7 2 4 1005.8 1005.0 11.4
19/05:00pm 25.9 29.4 22.2 80 2.5 W 7 9 4 5 1005.7 1004.9 11.4
19/04:30pm 25.7 29.2 21.8 79 2.6 W 6 9 3 5 1005.7 1004.9 11.4
19/04:00pm 25.8 29.0 22.3 81 2.4 WNW 9 13 5 7 1006.3 1005.5 11.4
19/03:30pm 26.2 30.4 23.5 85 1.9 NW 7 17 4 9 1006.3 1005.5 11.4
19/03:00pm 25.6 31.0 23.3 87 1.6 CALM 0 6 0 3 1005.8 1005.0 11.4
19/02:30pm 25.0 30.5 23.4 91 1.1 CALM 0 4 0 2 1005.8 1005.0 11.4
19/02:00pm 22.9 24.2 20.8 88 1.4 NNE 15 61 8 33 1006.5 1005.8 11.0
19/01:50pm 25.2 24.8 20.2 74 3.3 SSW 22 52 12 28 1007.2 1006.5 1.6
19/01:48pm 27.5 28.0 20.1 64 4.9 SW 17 39 9 21 1007.0 1006.3 0.2
19/01:30pm 33.0 37.1 23.9 59 6.4 W 9 15 5 8 1006.6 1005.9 0.0

Other Formats:

Comma delimited format used in spreadsheet applications
http://www.bom.gov.au/fwo/IDD60801/IDD60801.94125.axf

JavaScript Object Notation format (JSON) in row-major order
http://www.bom.gov.au/fwo/IDD60801/IDD60801.94125.json